ADDS METAR Data INFO
IDs: Format: Raw Decoded Include TAF

Data at: 2242 UTC 11 Dec 2017

KEZM 112235Z AUTO 23003KT 10SM CLR 14/M04 A3010 RMK AO2 T01401043
KEZM 112215Z AUTO 24003KT 10SM CLR 15/M05 A3011 RMK AO2 T01501054
KEZM 112155Z AUTO 24004KT 10SM CLR 16/M07 A3011 RMK AO2 T01611067
KEZM 112135Z AUTO 23007KT 10SM CLR 17/M08 A3011 RMK AO2 T01681080
KEZM 112115Z AUTO 26005KT 10SM CLR 17/M09 A3011 RMK AO2 T01731094
KEZM 112055Z AUTO 26008KT 10SM CLR 18/M10 A3011 RMK AO2 T01771096
KEZM 112035Z AUTO 26006KT 10SM CLR 18/M09 A3011 RMK AO2 T01761093
KEZM 112015Z AUTO 23005KT 7SM CLR 18/M10 A3011 RMK AO2 T01761101
KEZM 111955Z AUTO 23004KT 10SM CLR 18/M09 A3012 RMK AO2 T01771089
KEZM 111935Z AUTO 24007KT 10SM CLR 17/M10 A3012 RMK AO2 T01731102
KEZM 111915Z AUTO 25006KT 10SM CLR 17/M09 A3013 RMK AO2 T01711095
KEZM 111855Z AUTO 24007KT 10SM CLR 17/M09 A3014 RMK AO2 T01711092
KEZM 111835Z AUTO 23007KT 10SM CLR 17/M08 A3015 RMK AO2 T01651084
KEZM 111815Z AUTO 28003KT 10SM CLR 16/M08 A3016 RMK AO2 T01621080
KEZM 111755Z AUTO 29005KT 10SM CLR 16/M09 A3018 RMK AO2 T01591086 10162 21010
KEZM 111735Z AUTO 27006KT 10SM CLR 16/M08 A3019 RMK AO2 T01551080
KEZM 111715Z AUTO 27006KT 10SM CLR 15/M07 A3021 RMK AO2 T01451067
KEZM 111655Z AUTO 26006KT 10SM CLR 14/M07 A3022 RMK AO2 T01381069
KEZM 111635Z AUTO 27006KT 10SM CLR 13/M07 A3023 RMK AO2 T01321071
KEZM 111615Z AUTO 30006KT 10SM CLR 12/M07 A3025 RMK AO2 T01241073
KEZM 111555Z AUTO 30005KT 10SM CLR 12/M07 A3026 RMK AO2 T01151066
KEZM 111535Z AUTO 30005KT 10SM CLR 11/M05 A3026 RMK AO2 T01091050
KEZM 111515Z AUTO 27003KT 10SM CLR 10/M04 A3027 RMK AO2 T00961044
KEZM 111455Z AUTO 27005KT 10SM CLR 09/M04 A3028 RMK AO2 T00881036
KEZM 111435Z AUTO 28003KT 10SM CLR 08/M03 A3028 RMK AO2 T00751032
KEZM 111415Z AUTO 24003KT 10SM CLR 06/M03 A3028 RMK AO2 T00591029
KEZM 111355Z AUTO 00000KT 10SM CLR 05/M03 A3028 RMK AO2 T00461031
KEZM 111335Z AUTO 25003KT 10SM CLR 03/M03 A3027 RMK AO2 T00321032
KEZM 111315Z AUTO 00000KT 10SM CLR 02/M04 A3027 RMK AO2 T00201038
KEZM 111255Z AUTO 00000KT 10SM CLR 01/M04 A3028 RMK AO2 T00081042
KEZM 111235Z AUTO 23003KT 10SM CLR 00/M04 A3027 RMK AO2 T10011043
KEZM 111215Z AUTO 00000KT 10SM CLR M01/M04 A3027 RMK AO2 T10071041
KEZM 111155Z AUTO 00000KT 10SM CLR 00/M04 A3027 RMK AO2 T00001043 10006 21015
KEZM 111135Z AUTO 00000KT 10SM CLR 00/M04 A3027 RMK AO2 T00031042
KEZM 111115Z AUTO 00000KT 10SM CLR 00/M04 A3027 RMK AO2 T00001043
KEZM 111055Z AUTO 00000KT 10SM CLR M01/M04 A3027 RMK AO2 T10071042
KEZM 111035Z AUTO 00000KT 10SM CLR M01/M04 A3027 RMK AO2 T10121045
KEZM 111015Z AUTO 00000KT 10SM CLR 00/M04 A3027 RMK AO2 T00001042
KEZM 110955Z AUTO 00000KT 10SM CLR 00/M04 A3027 RMK AO2 T00001040
KEZM 110935Z AUTO 20003KT 10SM CLR M01/M04 A3028 RMK AO2 T10121043
KEZM 110915Z AUTO 19003KT 10SM CLR M01/M04 A3028 RMK AO2 T10121042
KEZM 110855Z AUTO 00000KT 10SM CLR M01/M04 A3029 RMK AO2 T10111041
KEZM 110835Z AUTO 00000KT 10SM CLR M01/M04 A3029 RMK AO2 T10151045
KEZM 110815Z AUTO 00000KT 10SM CLR M01/M04 A3030 RMK AO2 T10071044
KEZM 110755Z AUTO 00000KT 10SM CLR M01/M04 A3031 RMK AO2 T10071039
KEZM 110735Z AUTO 00000KT 10SM CLR M01/M04 A3031 RMK AO2 T10061037
KEZM 110715Z AUTO 00000KT 10SM CLR M01/M04 A3031 RMK AO2 T10061038
KEZM 110655Z AUTO 00000KT 10SM CLR M01/M04 A3031 RMK AO2 T10071043
KEZM 110635Z AUTO 00000KT 10SM CLR 00/M04 A3030 RMK AO2 T00001042
KEZM 110615Z AUTO 00000KT 10SM CLR 01/M04 A3030 RMK AO2 T00061043
KEZM 110555Z AUTO 00000KT 10SM CLR 00/M04 A3030 RMK AO2 T00001043 10037 20000 401111006
KEZM 110535Z AUTO 00000KT 10SM CLR 00/M05 A3030 RMK AO2 T00031051
KEZM 110515Z AUTO 00000KT 10SM CLR 02/M05 A3031 RMK AO2 T00151049
KEZM 110455Z AUTO 00000KT 10SM CLR 01/M04 A3031 RMK AO2 T00051045
KEZM 110435Z AUTO 00000KT 10SM CLR 02/M05 A3032 RMK AO2 T00201049
KEZM 110415Z AUTO 00000KT 10SM CLR 03/M05 A3032 RMK AO2 T00311051
KEZM 110355Z AUTO 25003KT 10SM CLR 02/M05 A3031 RMK AO2 T00231048
KEZM 110335Z AUTO 00000KT 10SM CLR 02/M05 A3032 RMK AO2 T00151046
KEZM 110315Z AUTO 00000KT 10SM CLR 01/M03 A3032 RMK AO2 T00091029
KEZM 110255Z AUTO 00000KT 10SM CLR 01/M03 A3031 RMK AO2 T00071027
KEZM 110235Z AUTO 00000KT 10SM CLR 01/M02 A3031 RMK AO2 T00091024
KEZM 110215Z AUTO 00000KT 10SM CLR 01/M02 A3030 RMK AO2 T00101023
KEZM 110155Z AUTO 00000KT 10SM CLR 01/M03 A3030 RMK AO2 T00141027
KEZM 110135Z AUTO 00000KT 10SM CLR 02/M02 A3030 RMK AO2 T00171020
KEZM 110115Z AUTO 00000KT 10SM CLR 03/M02 A3030 RMK AO2 T00301020
KEZM 110055Z AUTO 00000KT 10SM CLR 03/M02 A3029 RMK AO2 T00251021
KEZM 110030Z AUTO 00000KT 10SM CLR 03/M02 A3029 RMK AO2 T00251022
KEZM 110015Z AUTO 00000KT 10SM CLR 03/M02 A3029 RMK AO2 T00311022
KEZM 102355Z AUTO 00000KT 10SM CLR 04/M03 A3029 RMK AO2 T00391027 10111 20039
KEZM 102335Z AUTO 00000KT 10SM CLR 05/M04 A3028 RMK AO2 T00501040
KEZM 102315Z AUTO 00000KT 10SM CLR 06/M05 A3028 RMK AO2 T00641052
KEZM 102255Z AUTO 26003KT 10SM CLR 07/M06 A3028 RMK AO2 T00731060
KEZM 102235Z AUTO 26003KT 10SM CLR 08/M09 A3028 RMK AO2 T00811087
KEZM 102215Z AUTO 25004KT 10SM CLR 09/M10 A3028 RMK AO2 T00891097
KEZM 102155Z AUTO 27003KT 10SM CLR 10/M12 A3028 RMK AO2 T00971121
KEZM 102135Z AUTO 29006KT 10SM CLR 10/M14 A3027 RMK AO2 T01031145
KEZM 102115Z AUTO 30003KT 10SM CLR 11/M15 A3027 RMK AO2 T01061155
KEZM 102055Z AUTO 29006KT 10SM CLR 11/M16 A3026 RMK AO2 T01071165
KEZM 102035Z AUTO 31006KT 10SM CLR 11/M15 A3027 RMK AO2 T01081153
KEZM 102015Z AUTO 29008KT 10SM CLR 11/M15 A3028 RMK AO2 T01101154
KEZM 101955Z AUTO 31007KT 10SM CLR 11/M16 A3028 RMK AO2 T01081157
KEZM 101935Z AUTO 30006KT 10SM CLR 11/M14 A3028 RMK AO2 T01081140
KEZM 101915Z AUTO 27008KT 10SM CLR 11/M13 A3028 RMK AO2 T01061126
KEZM 101855Z AUTO 31003KT 10SM CLR 10/M12 A3028 RMK AO2 T01021120
KEZM 101835Z AUTO 25004KT 10SM CLR 10/M11 A3029 RMK AO2 T00961113
KEZM 101815Z AUTO 26006KT 10SM CLR 09/M12 A3029 RMK AO2 T00941125
KEZM 101755Z AUTO 27005KT 10SM CLR 09/M11 A3030 RMK AO2 T00891114 10090 21006
KEZM 101735Z AUTO 30006KT 10SM CLR 09/M11 A3031 RMK AO2 T00851115
KEZM 101715Z AUTO 31008KT 10SM CLR 08/M11 A3031 RMK AO2 T00811106
KEZM 101655Z AUTO 32007KT 300V360 10SM CLR 07/M10 A3033 RMK AO2 T00741101
KEZM 101635Z AUTO 28008KT 10SM CLR 07/M10 A3033 RMK AO2 T00711099
KEZM 101615Z AUTO 27005KT 10SM CLR 06/M10 A3035 RMK AO2 T00641100
KEZM 101555Z AUTO 29005KT 10SM CLR 06/M09 A3035 RMK AO2 T00601095
KEZM 101535Z AUTO 32005KT 10SM CLR 05/M09 A3035 RMK AO2 T00531090
KEZM 101515Z AUTO 31006KT 10SM CLR 05/M08 A3035 RMK AO2 T00491078
KEZM 101455Z AUTO 31006KT 10SM CLR 04/M08 A3035 RMK AO2 T00411077
KEZM 101435Z AUTO 31005KT 10SM CLR 04/M07 A3035 RMK AO2 T00351074
KEZM 101415Z AUTO 32006KT 10SM CLR 03/M07 A3035 RMK AO2 T00261069
KEZM 101355Z AUTO 30003KT 10SM CLR 02/M06 A3035 RMK AO2 T00191060
KEZM 101335Z AUTO 32003KT 10SM CLR 01/M05 A3033 RMK AO2 T00111055
KEZM 101315Z AUTO 00000KT 10SM CLR 00/M05 A3033 RMK AO2 T00021050
KEZM 101255Z AUTO 31003KT 10SM CLR 00/M05 A3033 RMK AO2 T10011052
KEZM 101235Z AUTO 31003KT 10SM CLR M01/M05 A3033 RMK AO2 T10061052
KEZM 101215Z AUTO 30004KT 10SM CLR M01/M05 A3032 RMK AO2 T10061051
KEZM 101155Z AUTO 30004KT 10SM CLR 00/M05 A3032 RMK AO2 T10051049 10020 21005
KEZM 101135Z AUTO 31005KT 10SM CLR 00/M05 A3031 RMK AO2 T10031047
KEZM 101115Z AUTO 30004KT 10SM CLR 00/M04 A3031 RMK AO2 T10021045
KEZM 101055Z AUTO 29005KT 10SM CLR 00/M05 A3030 RMK AO2 T00001046